Time;durP1;ratioP1;P1;durP2;ratioP2;P2;SDS_P1;SDS_P2;PMS_P1;PMS_P2;Temp;Humidity;BMP_temperature;BMP_pressure;BME280_temperature;BME280_humidity;BME280_pressure;Samples;Min_cycle;Max_cycle;Signal;HPM_P1;HPM_P2
2023/01/23 00:01:48;;;;;;;2.92;2.05;;;15.00;56.80;;;;;;5042458;28;20025;-69
2023/01/23 00:04:15;;;;;;;2.60;2.30;;;15.00;57.00;;;;;;5042479;28;20025;-68
2023/01/23 00:06:40;;;;;;;3.72;2.60;;;14.90;57.00;;;;;;5042456;28;20029;-69
2023/01/23 00:09:07;;;;;;;2.90;2.33;;;14.90;57.10;;;;;;5042538;28;20025;-70
2023/01/23 00:11:33;;;;;;;4.15;2.58;;;14.90;57.10;;;;;;5042295;28;20242;-68
2023/01/23 00:14:00;;;;;;;2.58;2.05;;;14.90;57.10;;;;;;5042342;28;20084;-69
2023/01/23 00:16:31;;;;;;;3.47;2.65;;;14.90;57.20;;;;;;5042226;28;20029;-68
2023/01/23 00:18:57;;;;;;;4.30;2.78;;;14.90;57.20;;;;;;5042296;28;20025;-69
2023/01/23 00:21:25;;;;;;;2.97;2.40;;;14.90;57.30;;;;;;5042096;28;20088;-69
2023/01/23 00:23:54;;;;;;;2.40;2.20;;;14.90;57.40;;;;;;5042071;28;20026;-70
2023/01/23 00:26:25;;;;;;;3.63;2.83;;;14.90;57.30;;;;;;5042122;28;20329;-69
2023/01/23 00:28:52;;;;;;;3.38;2.35;;;14.80;57.30;;;;;;5042145;28;20085;-68
2023/01/23 00:31:21;;;;;;;2.85;2.40;;;14.80;57.30;;;;;;5042208;28;20036;-69
2023/01/23 00:33:46;;;;;;;;;;;14.80;57.40;;;;;;5042634;28;20029;-71
2023/01/23 00:36:14;;;;;;;2.22;2.00;;;14.80;57.40;;;;;;5042010;28;19916;-67
2023/01/23 00:38:40;;;;;;;3.35;2.63;;;14.90;57.50;;;;;;5041967;28;20092;-69
2023/01/23 00:41:06;;;;;;;2.65;1.88;;;15.00;57.30;;;;;;5041921;28;20029;-68
2023/01/23 00:43:33;;;;;;;2.58;1.92;;;15.10;57.10;;;;;;5041804;28;20041;-69
2023/01/23 00:45:59;;;;;;;3.58;2.65;;;15.20;57.00;;;;;;5041738;28;20433;-70
2023/01/23 00:48:24;;;;;;;3.10;2.40;;;15.20;56.90;;;;;;5041622;28;20225;-67
2023/01/23 00:50:52;;;;;;;2.53;2.05;;;15.30;56.70;;;;;;5041589;28;20021;-69
2023/01/23 00:53:18;;;;;;;3.33;2.40;;;15.30;56.70;;;;;;5041568;28;20040;-69
2023/01/23 00:55:44;;;;;;;2.70;2.20;;;15.30;56.60;;;;;;5041433;28;20102;-69
2023/01/23 00:58:10;;;;;;;3.63;2.58;;;15.40;56.60;;;;;;5041379;28;20037;-69
2023/01/23 01:00:37;;;;;;;3.45;2.53;;;15.30;56.40;;;;;;5041252;28;20033;-67
2023/01/23 01:03:03;;;;;;;2.83;2.42;;;15.30;56.40;;;;;;5041322;28;20032;-68
2023/01/23 01:05:29;;;;;;;2.25;2.05;;;15.20;56.50;;;;;;5040826;28;20095;-68
2023/01/23 01:07:55;;;;;;;3.45;2.45;;;15.20;56.60;;;;;;5041250;28;20033;-69
2023/01/23 01:10:20;;;;;;;3.25;2.50;;;15.10;56.60;;;;;;5041048;28;20344;-70
2023/01/23 01:12:46;;;;;;;3.63;2.40;;;15.10;56.90;;;;;;5056414;28;20029;-69
2023/01/23 01:15:12;;;;;;;3.05;2.38;;;15.00;56.90;;;;;;5041137;28;20084;-69
2023/01/23 01:17:39;;;;;;;3.67;2.55;;;15.00;56.90;;;;;;5041026;28;20025;-68
2023/01/23 01:20:06;;;;;;;3.75;2.67;;;14.90;56.90;;;;;;5040910;28;20033;-68
2023/01/23 01:22:32;;;;;;;2.47;2.17;;;14.90;57.00;;;;;;5040871;28;20025;-69
2023/01/23 01:24:58;;;;;;;2.75;2.35;;;14.90;57.10;;;;;;5039516;28;20036;-69
2023/01/23 01:27:24;;;;;;;3.08;2.65;;;14.90;57.20;;;;;;5040869;28;20021;-70
2023/01/23 01:29:50;;;;;;;3.95;2.88;;;14.90;57.20;;;;;;5040865;28;20029;-70
2023/01/23 01:32:16;;;;;;;3.10;2.55;;;14.80;57.20;;;;;;5040809;28;20075;-70
2023/01/23 01:34:42;;;;;;;2.88;2.53;;;14.80;57.30;;;;;;5040787;28;20411;-68
2023/01/23 01:37:08;;;;;;;2.75;2.33;;;14.80;57.30;;;;;;5040872;28;20037;-70
2023/01/23 01:39:33;;;;;;;2.17;1.95;;;14.80;57.30;;;;;;5040666;28;20026;-69
2023/01/23 01:41:59;;;;;;;3.33;2.30;;;14.80;57.30;;;;;;5040782;28;20029;-70
2023/01/23 01:44:25;;;;;;;2.90;2.38;;;14.80;57.40;;;;;;5040580;28;20032;-69
2023/01/23 01:46:51;;;;;;;2.88;2.40;;;14.80;57.40;;;;;;5040513;28;20030;-67
2023/01/23 01:49:29;;;;;;;3.78;2.63;;;14.80;57.40;;;;;;5040600;28;20081;-70
2023/01/23 01:52:12;;;;;;;2.55;2.10;;;14.80;57.50;;;;;;5040511;28;20029;-69
2023/01/23 01:54:50;;;;;;;3.45;2.47;;;15.00;57.50;;;;;;5040481;28;20432;-68
2023/01/23 01:57:27;;;;;;;2.50;1.90;;;15.00;57.40;;;;;;5040397;28;20022;-69
2023/01/23 01:59:53;;;;;;;2.53;2.10;;;15.10;57.10;;;;;;5040359;28;20033;-69
2023/01/23 02:02:30;;;;;;;3.08;2.15;;;15.20;57.00;;;;;;5040474;28;20282;-69
2023/01/23 02:05:09;;;;;;;3.10;2.30;;;15.20;56.80;;;;;;5040287;28;20055;-68
2023/01/23 02:07:41;;;;;;;2.63;2.25;;;15.30;56.70;;;;;;5040448;28;20331;-70
2023/01/23 02:10:10;;;;;;;2.35;2.10;;;15.30;56.60;;;;;;5040128;28;20033;-68
2023/01/23 02:12:37;;;;;;;;;;;15.30;56.60;;;;;;5040876;28;20100;-69
2023/01/23 02:15:05;;;;;;;3.10;2.63;;;15.40;56.60;;;;;;5040135;28;20349;-68
2023/01/23 02:17:32;;;;;;;4.03;2.20;;;15.40;56.40;;;;;;5039290;28;20033;-69
2023/01/23 02:20:26;;;;;;;2.65;2.15;;;15.40;56.50;;;;;;5040180;28;20052;-68
2023/01/23 02:23:41;;;;;;;3.28;2.50;;;15.30;56.50;;;;;;5040212;28;20144;-68
2023/01/23 02:26:12;;;;;;;3.15;2.67;;;15.20;56.60;;;;;;5021992;28;20034;-68
2023/01/23 02:28:51;;;;;;;3.50;2.58;;;15.20;56.60;;;;;;5040022;28;20067;-67
2023/01/23 02:31:17;;;;;;;2.85;2.20;;;15.10;56.70;;;;;;5039980;28;20033;-68
2023/01/23 02:33:46;;;;;;;3.25;2.40;;;15.10;56.70;;;;;;5039951;28;20049;-69
2023/01/23 02:36:13;;;;;;;3.35;2.45;;;15.10;56.80;;;;;;5039878;28;20033;-68
2023/01/23 02:38:49;;;;;;;3.63;2.47;;;15.00;56.90;;;;;;5039939;28;20070;-69
2023/01/23 02:41:19;;;;;;;3.90;2.63;;;14.90;57.00;;;;;;5039867;28;20272;-69
2023/01/23 02:43:47;;;;;;;2.92;2.50;;;14.90;57.00;;;;;;5040020;28;20378;-68
2023/01/23 02:46:14;;;;;;;3.50;2.70;;;14.80;57.00;;;;;;5039782;28;20022;-70
2023/01/23 02:48:42;;;;;;;2.95;2.20;;;14.80;57.10;;;;;;5039887;28;20319;-69
2023/01/23 02:51:08;;;;;;;3.70;2.75;;;14.80;57.30;;;;;;5039877;28;20079;-70
2023/01/23 02:53:34;;;;;;;3.75;2.53;;;14.80;57.30;;;;;;5039708;28;20341;-68
2023/01/23 02:56:00;;;;;;;2.97;2.50;;;14.80;57.30;;;;;;5039698;28;20559;-69
2023/01/23 03:01:10;;;;;;;2.60;2.25;;;14.80;57.40;;;;;;5039589;28;20079;-69
2023/01/23 03:03:36;;;;;;;3.63;2.67;;;14.70;57.40;;;;;;5039759;28;20325;-68
2023/01/23 03:06:02;;;;;;;3.45;2.67;;;14.80;57.50;;;;;;5039631;28;20025;-69
2023/01/23 03:08:46;;;;;;;3.42;2.30;;;14.80;57.40;;;;;;5039540;28;20025;-68
2023/01/23 03:11:12;;;;;;;2.08;1.80;;;14.90;57.60;;;;;;5039448;28;20291;-68
2023/01/23 03:13:38;;;;;;;2.83;2.47;;;15.00;57.40;;;;;;5039772;28;20025;-69
2023/01/23 03:16:05;;;;;;;3.17;2.20;;;15.00;57.10;;;;;;5039670;28;20308;-68
2023/01/23 03:18:32;;;;;;;2.50;2.10;;;15.10;56.90;;;;;;5039549;28;20025;-68
2023/01/23 03:21:02;;;;;;;3.20;2.17;;;15.20;56.90;;;;;;5039823;28;20029;-68
2023/01/23 03:23:28;;;;;;;2.10;1.92;;;15.30;56.80;;;;;;5039811;28;20089;-67
2023/01/23 03:25:57;;;;;;;2.88;2.05;;;15.30;56.60;;;;;;5039655;28;20071;-69
2023/01/23 03:31:12;;;;;;;2.92;2.15;;;15.30;56.60;;;;;;5043029;28;20037;-69
2023/01/23 03:33:41;;;;;;;3.03;2.25;;;15.40;56.40;;;;;;5043213;28;20037;-70
2023/01/23 03:36:08;;;;;;;3.33;2.65;;;15.30;56.40;;;;;;5042999;28;20080;-70
2023/01/23 03:38:34;;;;;;;2.63;2.20;;;15.30;56.50;;;;;;5042953;28;20248;-69
2023/01/23 03:43:44;;;;;;;2.95;2.28;;;15.20;56.70;;;;;;5042843;28;20108;-69
2023/01/23 03:46:10;;;;;;;2.97;2.40;;;15.10;56.70;;;;;;5042800;28;20221;-68
2023/01/23 03:48:36;;;;;;;2.58;2.00;;;15.10;56.70;;;;;;5042790;28;20449;-67
2023/01/23 03:51:01;;;;;;;2.72;2.17;;;15.00;56.80;;;;;;5042871;28;20056;-68
2023/01/23 03:53:27;;;;;;;3.70;2.17;;;15.00;56.90;;;;;;5042795;28;20029;-69
2023/01/23 03:55:53;;;;;;;2.67;2.30;;;14.90;56.90;;;;;;5042629;28;20112;-67
2023/01/23 03:58:19;;;;;;;2.63;2.25;;;14.90;57.00;;;;;;5042274;28;20055;-69
2023/01/23 04:00:45;;;;;;;3.35;2.45;;;14.80;57.00;;;;;;5042477;28;20068;-69
2023/01/23 04:03:10;;;;;;;2.30;2.05;;;14.80;57.10;;;;;;5042614;28;20340;-68
2023/01/23 04:05:36;;;;;;;3.92;2.60;;;14.80;57.10;;;;;;5042552;28;20033;-69
2023/01/23 04:08:02;;;;;;;3.20;2.25;;;14.80;57.20;;;;;;5042631;28;20025;-69
2023/01/23 04:10:28;;;;;;;2.47;1.65;;;14.70;57.30;;;;;;5057764;28;20122;-69
2023/01/23 04:12:54;;;;;;;3.20;2.00;;;14.70;57.30;;;;;;5042541;28;20036;-69
2023/01/23 04:15:20;;;;;;;2.83;2.38;;;14.80;57.40;;;;;;5042327;28;20033;-68
2023/01/23 04:17:46;;;;;;;2.70;2.30;;;14.70;57.50;;;;;;5042322;28;20107;-68
2023/01/23 04:20:12;;;;;;;2.00;1.70;;;14.70;57.50;;;;;;5042210;28;20391;-69
2023/01/23 04:22:38;;;;;;;1.98;1.77;;;14.80;57.60;;;;;;5040990;28;20238;-69
2023/01/23 04:25:05;;;;;;;3.03;1.95;;;14.80;57.60;;;;;;5042237;28;20035;-69
2023/01/23 04:27:31;;;;;;;3.03;2.20;;;15.00;57.60;;;;;;5042347;28;20079;-68
2023/01/23 04:29:57;;;;;;;2.58;2.00;;;15.00;57.30;;;;;;5041985;28;20061;-69
2023/01/23 04:32:23;;;;;;;2.17;1.98;;;15.10;57.10;;;;;;5041871;28;20028;-68
2023/01/23 04:34:49;;;;;;;2.50;2.17;;;15.20;56.90;;;;;;5041904;28;20097;-69
2023/01/23 04:37:15;;;;;;;2.45;2.05;;;15.20;56.80;;;;;;5041893;28;20260;-68
2023/01/23 04:39:41;;;;;;;3.88;2.30;;;15.20;56.60;;;;;;5041380;28;20120;-69
2023/01/23 04:42:07;;;;;;;2.90;2.20;;;15.30;56.60;;;;;;5041215;28;20195;-68
2023/01/23 04:44:33;;;;;;;2.22;1.85;;;15.30;56.60;;;;;;5041922;28;20184;-70
2023/01/23 04:46:59;;;;;;;2.50;2.00;;;15.30;56.50;;;;;;5041666;28;20021;-68
2023/01/23 04:49:26;;;;;;;2.88;2.30;;;15.30;56.50;;;;;;5041625;28;20033;-69
2023/01/23 04:51:52;;;;;;;2.22;1.75;;;15.30;56.50;;;;;;5041537;28;20452;-68
2023/01/23 04:54:19;;;;;;;2.20;2.00;;;15.20;56.50;;;;;;5041532;28;20029;-68
2023/01/23 04:56:46;;;;;;;2.13;1.80;;;15.10;56.50;;;;;;5041427;28;20325;-68
2023/01/23 04:59:13;;;;;;;2.15;1.55;;;15.10;56.60;;;;;;5041407;28;20563;-69
2023/01/23 05:01:39;;;;;;;2.97;2.30;;;15.10;56.70;;;;;;5041433;28;20084;-69
2023/01/23 05:04:05;;;;;;;3.55;2.00;;;15.00;56.80;;;;;;5041316;28;20076;-68
2023/01/23 05:06:31;;;;;;;3.00;2.20;;;15.00;56.90;;;;;;5041235;28;20033;-68
2023/01/23 05:08:57;;;;;;;2.92;2.45;;;14.90;57.40;;;;;;5041487;28;20440;-70
2023/01/23 05:11:23;;;;;;;1.77;1.65;;;14.90;57.10;;;;;;5039858;28;20056;-68
2023/01/23 05:13:49;;;;;;;3.00;2.08;;;14.80;56.90;;;;;;5041116;28;20328;-69
2023/01/23 05:16:15;;;;;;;3.25;2.55;;;14.80;57.10;;;;;;5041083;28;20036;-69
2023/01/23 05:18:41;;;;;;;2.63;2.13;;;14.80;57.10;;;;;;5041222;28;20026;-69
2023/01/23 05:21:07;;;;;;;2.33;2.00;;;14.70;57.20;;;;;;5041141;28;20072;-68
2023/01/23 05:23:33;;;;;;;2.65;1.83;;;14.80;57.30;;;;;;5056306;28;20029;-69
2023/01/23 05:25:59;;;;;;;1.85;1.70;;;14.70;57.30;;;;;;5040958;28;20017;-69
2023/01/23 05:28:25;;;;;;;2.40;1.90;;;14.70;57.50;;;;;;5040919;28;20041;-69
2023/01/23 05:30:50;;;;;;;3.05;2.30;;;14.70;57.50;;;;;;5040901;28;20026;-69
2023/01/23 05:33:16;;;;;;;2.05;1.85;;;14.70;57.60;;;;;;5041002;28;20029;-67
2023/01/23 05:35:42;;;;;;;2.40;2.05;;;14.80;57.60;;;;;;5056015;28;20021;-68
2023/01/23 05:38:09;;;;;;;1.92;1.73;;;14.90;57.70;;;;;;5040780;28;20029;-69
2023/01/23 05:40:35;;;;;;;2.72;2.10;;;14.90;57.50;;;;;;5040531;28;20033;-68
2023/01/23 05:43:01;;;;;;;2.92;2.00;;;15.00;57.20;;;;;;5041174;28;20217;-69
2023/01/23 05:45:27;;;;;;;2.60;2.10;;;15.10;57.10;;;;;;5040546;28;20033;-70
2023/01/23 05:47:54;;;;;;;2.90;2.53;;;15.20;56.90;;;;;;5040539;28;20029;-69
2023/01/23 05:50:22;;;;;;;2.38;2.05;;;15.20;56.70;;;;;;5040484;28;20389;-70
2023/01/23 05:52:48;;;;;;;1.90;1.70;;;15.30;57.30;;;;;;5040669;28;20542;-69
2023/01/23 05:55:14;;;;;;;2.97;2.33;;;15.30;56.70;;;;;;5040390;28;20259;-69
2023/01/23 05:57:40;;;;;;;2.22;1.98;;;15.30;56.60;;;;;;5040502;28;20025;-73
2023/01/23 06:00:08;;;;;;;2.72;2.15;;;15.30;56.60;;;;;;5040360;28;20071;-71
2023/01/23 06:02:34;;;;;;;2.08;1.75;;;15.20;56.50;;;;;;5040426;28;20035;-69
2023/01/23 06:04:59;;;;;;;2.80;2.40;;;15.20;56.60;;;;;;5040366;28;20084;-68
2023/01/23 06:07:25;;;;;;;2.00;1.73;;;15.10;56.60;;;;;;5040243;28;20361;-70
2023/01/23 06:09:51;;;;;;;2.72;2.28;;;15.10;56.80;;;;;;5040194;28;20053;-68
2023/01/23 06:12:17;;;;;;;1.88;1.70;;;15.00;56.80;;;;;;5039915;28;20060;-68
2023/01/23 06:14:43;;;;;;;2.08;1.83;;;15.00;57.00;;;;;;5040149;28;20574;-69
2023/01/23 06:17:10;;;;;;;2.33;1.63;;;14.90;57.00;;;;;;5040207;28;20032;-69
2023/01/23 06:19:36;;;;;;;2.67;2.20;;;14.90;57.00;;;;;;5040076;28;20033;-69
2023/01/23 06:22:02;;;;;;;3.05;2.17;;;14.80;57.10;;;;;;5040032;28;20025;-69
2023/01/23 06:24:28;;;;;;;2.45;2.00;;;14.80;57.10;;;;;;5039949;28;20060;-69
2023/01/23 06:26:53;;;;;;;3.33;2.30;;;14.80;57.20;;;;;;5039948;28;20049;-69
2023/01/23 06:29:19;;;;;;;2.58;1.80;;;14.80;57.30;;;;;;5039982;28;20043;-69
2023/01/23 06:31:46;;;;;;;2.58;1.70;;;14.80;57.90;;;;;;5039924;28;20044;-69
2023/01/23 06:34:13;;;;;;;2.33;2.05;;;14.70;57.30;;;;;;5039846;28;20271;-69
2023/01/23 06:36:39;;;;;;;2.45;2.10;;;14.70;57.40;;;;;;5039996;28;20124;-68
2023/01/23 06:39:05;;;;;;;2.22;1.65;;;14.70;57.50;;;;;;5039819;28;20025;-68
2023/01/23 06:41:32;;;;;;;3.40;1.77;;;14.70;57.50;;;;;;5039937;28;20288;-68
2023/01/23 06:43:58;;;;;;;2.10;1.80;;;14.90;57.60;;;;;;5039912;28;20025;-68
2023/01/23 06:46:24;;;;;;;2.58;2.10;;;14.90;57.50;;;;;;5039800;28;20029;-69
2023/01/23 06:48:51;;;;;;;2.22;1.73;;;15.00;57.40;;;;;;5039886;28;20052;-69
2023/01/23 06:51:17;;;;;;;2.28;1.90;;;15.10;57.20;;;;;;5039803;28;20210;-68
2023/01/23 06:53:43;;;;;;;2.53;2.33;;;15.20;57.10;;;;;;5039775;28;20092;-68
2023/01/23 06:56:10;;;;;;;3.00;2.47;;;15.20;56.90;;;;;;5039830;28;20088;-69
2023/01/23 06:58:37;;;;;;;2.40;1.85;;;15.30;56.80;;;;;;5039933;28;20391;-67
2023/01/23 07:01:14;;;;;;;2.28;2.00;;;15.30;56.70;;;;;;5039794;28;20041;-69
2023/01/23 07:03:41;;;;;;;2.15;1.95;;;15.20;56.60;;;;;;5040971;28;20524;-69
2023/01/23 07:06:07;;;;;;;3.13;1.90;;;15.20;56.60;;;;;;5043684;28;20081;-69
2023/01/23 07:08:33;;;;;;;2.20;1.90;;;15.20;56.70;;;;;;5043530;28;20065;-70
2023/01/23 07:11:00;;;;;;;2.25;1.90;;;15.10;56.80;;;;;;5043269;28;20084;-70
2023/01/23 07:13:26;;;;;;;2.80;2.35;;;15.10;56.90;;;;;;5043399;28;20048;-69
2023/01/23 07:15:52;;;;;;;2.88;2.42;;;15.00;56.90;;;;;;5043369;28;20033;-69
2023/01/23 07:18:17;;;;;;;1.63;1.52;;;15.00;57.00;;;;;;5043369;28;20025;-68
2023/01/23 07:20:44;;;;;;;2.38;1.88;;;14.90;57.10;;;;;;5043298;28;20040;-70
2023/01/23 07:23:10;;;;;;;2.00;1.70;;;14.90;57.00;;;;;;5043159;28;20017;-70
2023/01/23 07:25:36;;;;;;;4.72;3.22;;;14.90;57.00;;;;;;5043207;28;20036;-69
2023/01/23 07:28:02;;;;;;;8.23;2.38;;;14.90;56.90;;;;;;5058473;28;20221;-69
2023/01/23 07:30:28;;;;;;;6.07;2.33;;;14.90;56.90;;;;;;5043177;28;20033;-69
2023/01/23 07:32:54;;;;;;;5.03;3.20;;;14.90;56.90;;;;;;5043201;28;20028;-70
2023/01/23 07:35:20;;;;;;;3.20;2.10;;;14.80;57.00;;;;;;5043167;28;20073;-69
2023/01/23 07:37:46;;;;;;;7.97;2.30;;;14.80;57.00;;;;;;5043049;28;20111;-70
2023/01/23 07:40:12;;;;;;;3.17;2.33;;;14.80;57.10;;;;;;5042902;28;20064;-69
2023/01/23 07:42:40;;;;;;;4.15;2.15;;;14.80;57.10;;;;;;5042916;28;20025;-68
2023/01/23 07:45:07;;;;;;;5.63;2.00;;;15.00;57.20;;;;;;5043244;28;20055;-69
2023/01/23 07:47:33;;;;;;;3.78;1.80;;;15.00;57.20;;;;;;5043180;28;20025;-70
2023/01/23 07:49:59;;;;;;;7.57;2.55;;;15.10;57.10;;;;;;5042986;28;20026;-71
2023/01/23 07:52:25;;;;;;;3.10;2.20;;;15.20;57.00;;;;;;5042876;28;20063;-70
2023/01/23 07:54:51;;;;;;;4.50;2.33;;;15.30;56.90;;;;;;5042879;28;20314;-69
2023/01/23 07:57:16;;;;;;;3.90;1.92;;;15.50;56.50;;;;;;5042700;28;20030;-70
2023/01/23 07:59:42;;;;;;;2.30;1.88;;;15.60;56.20;;;;;;5042570;28;20025;-68
2023/01/23 08:02:10;;;;;;;4.93;2.33;;;15.60;55.90;;;;;;5042579;28;20028;-70
2023/01/23 08:04:36;;;;;;;2.97;2.05;;;15.60;55.70;;;;;;5042633;28;20032;-70
2023/01/23 08:07:02;;;;;;;2.67;1.80;;;15.60;55.70;;;;;;5042575;28;20089;-70
2023/01/23 08:09:28;;;;;;;2.92;2.13;;;15.60;55.80;;;;;;5042599;28;20049;-70
2023/01/23 08:11:54;;;;;;;2.53;1.90;;;15.50;56.00;;;;;;5042247;28;20056;-70
2023/01/23 08:14:19;;;;;;;3.53;2.08;;;15.40;56.10;;;;;;5042134;28;20040;-69
2023/01/23 08:16:49;;;;;;;3.25;1.80;;;15.40;56.20;;;;;;5041269;28;20037;-69
2023/01/23 08:19:16;;;;;;;2.92;1.95;;;15.40;56.30;;;;;;5042175;28;20032;-69
2023/01/23 08:21:43;;;;;;;4.82;1.80;;;15.40;56.40;;;;;;5042070;28;20279;-68
2023/01/23 08:24:12;;;;;;;3.15;1.77;;;15.30;56.40;;;;;;5042179;28;20047;-69
2023/01/23 08:26:39;;;;;;;2.72;1.70;;;15.30;56.50;;;;;;5042078;28;20026;-69
2023/01/23 08:29:05;;;;;;;3.28;1.92;;;15.30;56.50;;;;;;5041955;28;20068;-70
2023/01/23 08:31:31;;;;;;;3.80;2.17;;;15.30;56.60;;;;;;5042030;28;20033;-70
2023/01/23 08:33:57;;;;;;;3.75;2.13;;;15.30;56.60;;;;;;5041940;28;20057;-68
2023/01/23 08:36:24;;;;;;;2.53;2.33;;;15.30;56.50;;;;;;5041860;28;20033;-69
2023/01/23 08:38:49;;;;;;;2.67;2.47;;;15.20;56.50;;;;;;5041822;28;20034;-70
2023/01/23 08:41:16;;;;;;;2.58;1.85;;;15.30;56.60;;;;;;5041659;28;20041;-70
2023/01/23 08:43:41;;;;;;;4.22;2.10;;;15.30;56.50;;;;;;5040376;28;20096;-69
2023/01/23 08:46:08;;;;;;;3.35;2.15;;;15.20;56.50;;;;;;5041817;28;20025;-70
2023/01/23 08:48:34;;;;;;;2.85;1.70;;;15.20;56.50;;;;;;5040352;28;20104;-69
2023/01/23 08:51:11;;;;;;;2.08;1.70;;;15.20;56.50;;;;;;5041617;28;20347;-70
2023/01/23 08:53:38;;;;;;;2.20;1.70;;;15.30;56.60;;;;;;5040359;28;20275;-70
2023/01/23 08:56:06;;;;;;;2.63;1.80;;;15.30;56.60;;;;;;5041602;28;20044;-69
2023/01/23 08:58:32;;;;;;;;;;;15.30;56.50;;;;;;5041973;28;20029;-69
2023/01/23 09:00:58;;;;;;;10.07;2.33;;;15.30;56.40;;;;;;5056663;28;19916;-70
